Hopedale, Louisiana
Current Conditions -  °F | °C
As of 5:21 AM on Monday 22 Dec 2014 (Local Time) from KNBG Reporting Station
Light Rain Light Rain  
Wind Chill: 59°   Ceiling: 1700
Heat Index: 59°   Visibility: 2mi
Dew Point: 58°   Wind: 0mph
Humidity: 96%   Direction: NA
Pressure: 29.86"   Gusts: NA
Location:  29.8369°N, 89.7702°W
Report Text: KNBG 221121Z AUTO 00000KT 2SM -RA BR SCT006 BKN017 OVC070 15/14 A2986 RMK AO2 P0001 T01500144 $
Loading
Personal Weather Stations






























Interactive Weather Map New forecast layout! Learn more

10-Day Weather Forecast

Advertisements
Track Severe Weather on mobile